Time;durP1;ratioP1;P1;durP2;ratioP2;P2;SDS_P1;SDS_P2;PMS_P1;PMS_P2;Temp;Humidity;BMP_temperature;BMP_pressure;BME280_temperature;BME280_humidity;BME280_pressure;Samples;Min_cycle;Max_cycle;Signal;HPM_P1;HPM_P2
2023/08/16 00:00:22;;;;;;;5.17;3.93;;;18.10;99.90;;;;;;5015182;28;20226;-64
2023/08/16 00:02:50;;;;;;;10.40;4.50;;;18.10;99.90;;;;;;5015746;28;20193;-64
2023/08/16 00:05:19;;;;;;;4.23;3.83;;;18.10;99.90;;;;;;5015003;28;20632;-64
2023/08/16 00:07:47;;;;;;;7.80;4.20;;;18.10;99.90;;;;;;5018202;28;20226;-64
2023/08/16 00:10:16;;;;;;;4.80;3.60;;;18.20;99.90;;;;;;5014624;28;20221;-64
2023/08/16 00:12:44;;;;;;;8.63;4.13;;;18.10;99.90;;;;;;5014979;28;20229;-64
2023/08/16 00:15:13;;;;;;;9.70;4.73;;;18.10;99.90;;;;;;4995295;28;20210;-63
2023/08/16 00:17:43;;;;;;;6.03;4.90;;;18.10;99.90;;;;;;5015581;28;20186;-64
2023/08/16 00:20:12;;;;;;;9.47;4.67;;;18.10;99.90;;;;;;5014734;28;20592;-64
2023/08/16 00:22:40;;;;;;;5.27;4.77;;;18.10;99.90;;;;;;5014614;28;20213;-64
2023/08/16 00:25:10;;;;;;;7.57;4.47;;;18.00;99.90;;;;;;5015250;28;20256;-64
2023/08/16 00:27:41;;;;;;;9.40;5.00;;;18.00;99.90;;;;;;5014467;28;20254;-64
2023/08/16 00:30:11;;;;;;;5.13;4.30;;;18.00;99.90;;;;;;4993443;28;20277;-63
2023/08/16 00:32:41;;;;;;;6.37;4.83;;;17.90;99.90;;;;;;4998979;28;20609;-63
2023/08/16 00:35:11;;;;;;;12.73;5.40;;;17.90;99.90;;;;;;5020009;28;20467;-64
2023/08/16 00:37:39;;;;;;;11.20;5.30;;;17.80;99.90;;;;;;5005664;28;20431;-64
2023/08/16 00:40:09;;;;;;;5.43;4.93;;;17.70;99.90;;;;;;5014470;28;20241;-64
2023/08/16 00:42:37;;;;;;;9.87;5.53;;;17.70;99.90;;;;;;5003273;28;20320;-66
2023/08/16 00:45:07;;;;;;;7.77;5.20;;;17.60;99.90;;;;;;5010210;28;20195;-65
2023/08/16 00:47:36;;;;;;;8.07;5.13;;;17.60;99.90;;;;;;4991307;28;20213;-64
2023/08/16 00:50:05;;;;;;;5.77;5.20;;;17.50;99.90;;;;;;4998233;28;20218;-64
2023/08/16 00:52:35;;;;;;;9.33;5.80;;;17.50;99.90;;;;;;4995533;28;20226;-64
2023/08/16 00:55:06;;;;;;;8.67;5.90;;;17.50;99.90;;;;;;5014267;28;20217;-64
2023/08/16 00:57:34;;;;;;;7.93;5.80;;;17.40;99.90;;;;;;4996262;28;20237;-64
2023/08/16 01:00:02;;;;;;;7.13;5.10;;;17.40;99.90;;;;;;5014654;28;20514;-64
2023/08/16 01:02:31;;;;;;;8.00;5.27;;;17.40;99.90;;;;;;5013810;28;20269;-64
2023/08/16 01:04:59;;;;;;;7.87;5.87;;;17.40;99.90;;;;;;5014112;28;20643;-64
2023/08/16 01:07:28;;;;;;;9.00;6.03;;;17.40;99.90;;;;;;5015716;28;20314;-64
2023/08/16 01:09:58;;;;;;;10.87;5.87;;;17.40;99.90;;;;;;5015951;28;20253;-64
2023/08/16 01:12:32;;;;;;;5.97;5.37;;;17.40;99.90;;;;;;5014132;28;20252;-64
2023/08/16 01:15:08;;;;;;;10.93;6.10;;;17.40;99.90;;;;;;5016384;28;20197;-64
2023/08/16 01:17:37;;;;;;;5.77;5.07;;;17.40;99.90;;;;;;5013903;28;20218;-64
2023/08/16 01:20:08;;;;;;;10.87;5.93;;;17.30;99.90;;;;;;5013852;28;20225;-64
2023/08/16 01:22:45;;;;;;;8.83;6.37;;;17.30;99.90;;;;;;5013394;28;20226;-64
2023/08/16 01:25:31;;;;;;;5.67;5.10;;;17.30;99.90;;;;;;5013506;28;20672;-64
2023/08/16 01:28:01;;;;;;;6.37;4.40;;;17.30;99.90;;;;;;5013366;28;20612;-64
2023/08/16 01:30:31;;;;;;;5.13;4.20;;;17.20;99.90;;;;;;5013678;28;20609;-64
2023/08/16 01:33:07;;;;;;;9.47;5.57;;;17.30;99.90;;;;;;5013928;28;20695;-64
2023/08/16 01:35:36;;;;;;;8.47;5.50;;;17.30;99.90;;;;;;5006607;28;20623;-64
2023/08/16 01:38:06;;;;;;;7.83;5.80;;;17.30;99.90;;;;;;5012750;28;20217;-64
2023/08/16 01:40:52;;;;;;;8.90;6.27;;;17.30;99.90;;;;;;5012624;28;20657;-64
2023/08/16 01:43:22;;;;;;;6.87;6.07;;;17.30;99.90;;;;;;5013515;28;20313;-64
2023/08/16 01:45:52;;;;;;;8.07;6.43;;;17.40;99.90;;;;;;4996539;28;20244;-64
2023/08/16 01:48:22;;;;;;;12.67;6.17;;;17.40;99.90;;;;;;4995723;28;20213;-64
2023/08/16 01:50:51;;;;;;;7.97;7.20;;;17.40;99.90;;;;;;5013615;28;20548;-64
2023/08/16 01:53:20;;;;;;;7.50;6.23;;;17.40;99.90;;;;;;5018845;28;20229;-64
2023/08/16 01:55:48;;;;;;;10.83;7.03;;;17.30;99.90;;;;;;4993456;28;20631;-64
2023/08/16 01:58:17;;;;;;;7.47;6.70;;;17.30;99.90;;;;;;5007690;28;20222;-64
2023/08/16 02:00:46;;;;;;;12.33;7.10;;;17.30;99.90;;;;;;5013210;28;20226;-64
2023/08/16 02:03:15;;;;;;;8.83;6.63;;;17.30;99.90;;;;;;5016054;28;20190;-64
2023/08/16 02:05:43;;;;;;;8.70;6.33;;;17.20;99.90;;;;;;5013283;28;20198;-64
2023/08/16 02:08:12;;;;;;;7.23;6.37;;;17.20;99.90;;;;;;5012911;28;20232;-64
2023/08/16 02:10:41;;;;;;;7.83;6.40;;;17.10;99.90;;;;;;5012873;28;20221;-64
2023/08/16 02:13:09;;;;;;;10.90;6.07;;;17.10;99.90;;;;;;5012928;28;20221;-64
2023/08/16 02:15:37;;;;;;;7.43;6.50;;;17.00;99.90;;;;;;5005477;28;20311;-64
2023/08/16 02:18:10;;;;;;;6.80;6.03;;;17.00;99.90;;;;;;5013167;28;20281;-64
2023/08/16 02:20:40;;;;;;;11.00;5.90;;;17.00;99.90;;;;;;5013595;28;20660;-64
2023/08/16 02:23:09;;;;;;;11.67;6.60;;;17.00;99.90;;;;;;5012999;28;20673;-64
2023/08/16 02:25:37;;;;;;;7.07;6.40;;;17.10;99.90;;;;;;5013139;28;20794;-64
2023/08/16 02:28:06;;;;;;;12.07;7.43;;;17.10;99.90;;;;;;5012971;28;20581;-64
2023/08/16 02:30:34;;;;;;;10.67;7.17;;;17.10;99.90;;;;;;5012861;28;20323;-64
2023/08/16 02:33:02;;;;;;;11.10;7.87;;;17.10;99.90;;;;;;5013085;28;20190;-64
2023/08/16 02:35:32;;;;;;;11.30;6.97;;;17.10;99.90;;;;;;5012810;28;20226;-64
2023/08/16 02:38:00;;;;;;;9.80;7.53;;;17.10;99.90;;;;;;4998713;28;20222;-64
2023/08/16 02:40:29;;;;;;;12.57;8.50;;;17.10;99.90;;;;;;5012543;28;20221;-64
2023/08/16 02:42:57;;;;;;;11.67;8.50;;;17.20;99.90;;;;;;5017371;28;20596;-64
2023/08/16 02:45:25;;;;;;;14.23;7.80;;;17.20;99.90;;;;;;5012678;28;20222;-64
2023/08/16 02:47:54;;;;;;;9.80;7.00;;;17.20;99.90;;;;;;5009631;28;20628;-64
2023/08/16 02:50:24;;;;;;;9.17;7.13;;;17.20;99.90;;;;;;5012340;28;20640;-64
2023/08/16 02:52:54;;;;;;;9.10;6.90;;;17.20;99.90;;;;;;5015148;28;20249;-64
2023/08/16 02:55:22;;;;;;;11.27;6.90;;;17.20;99.90;;;;;;5016224;28;20234;-64
2023/08/16 02:57:52;;;;;;;16.10;7.83;;;17.30;99.90;;;;;;5021772;28;20221;-64
2023/08/16 03:00:20;;;;;;;9.67;7.00;;;17.30;99.90;;;;;;5011595;28;20182;-64
2023/08/16 03:02:48;;;;;;;13.90;8.50;;;17.30;99.90;;;;;;5016832;28;20204;-64
2023/08/16 03:05:17;;;;;;;12.67;9.20;;;17.30;99.90;;;;;;5003731;28;20233;-64
2023/08/16 03:07:45;;;;;;;11.87;9.47;;;17.30;99.90;;;;;;5019724;28;20217;-64
2023/08/16 03:10:15;;;;;;;15.60;9.90;;;17.40;99.90;;;;;;5015670;28;20221;-64
2023/08/16 03:12:43;;;;;;;11.63;8.80;;;17.40;99.90;;;;;;4998396;28;20232;-64
2023/08/16 03:15:11;;;;;;;16.70;9.90;;;17.30;99.90;;;;;;5015756;28;20189;-63
2023/08/16 03:17:40;;;;;;;14.33;9.63;;;17.30;99.90;;;;;;5018798;28;20198;-64
2023/08/16 03:20:10;;;;;;;15.37;9.30;;;17.30;99.90;;;;;;5009132;28;20631;-64
2023/08/16 03:22:38;;;;;;;16.33;11.00;;;17.30;99.90;;;;;;5017139;28;20218;-64
2023/08/16 03:25:08;;;;;;;14.63;10.63;;;17.30;99.90;;;;;;5015858;28;20305;-64
2023/08/16 03:27:38;;;;;;;13.30;9.40;;;17.30;99.90;;;;;;5022239;28;20572;-64
2023/08/16 03:30:08;;;;;;;15.87;11.43;;;17.30;99.90;;;;;;5015559;28;20225;-63
2023/08/16 03:32:36;;;;;;;15.03;10.47;;;17.30;99.90;;;;;;5017177;28;20206;-64
2023/08/16 03:35:05;;;;;;;15.87;10.50;;;17.30;99.90;;;;;;5010948;28;20291;-64
2023/08/16 03:37:33;;;;;;;16.83;11.67;;;17.30;99.90;;;;;;5014987;28;20225;-64
2023/08/16 03:40:02;;;;;;;16.00;11.07;;;17.30;99.90;;;;;;5010989;28;20276;-64
2023/08/16 03:42:30;;;;;;;14.07;10.70;;;17.30;99.90;;;;;;5013350;28;20243;-64
2023/08/16 03:45:00;;;;;;;18.57;13.50;;;17.30;99.90;;;;;;5015887;28;20190;-64
2023/08/16 03:47:29;;;;;;;16.80;12.47;;;17.20;99.90;;;;;;5015841;28;20222;-64
2023/08/16 03:49:59;;;;;;;22.17;14.13;;;17.20;99.90;;;;;;5014966;28;20229;-64
2023/08/16 03:52:28;;;;;;;20.63;13.57;;;17.20;99.90;;;;;;5015083;28;20752;-64
2023/08/16 03:54:56;;;;;;;20.47;14.57;;;17.20;99.90;;;;;;5015173;28;20248;-64
2023/08/16 03:57:24;;;;;;;18.13;14.10;;;17.20;99.90;;;;;;5015333;28;20222;-64
2023/08/16 03:59:53;;;;;;;16.90;12.67;;;17.10;99.90;;;;;;5015319;28;20275;-64
2023/08/16 04:02:23;;;;;;;21.10;14.13;;;17.10;99.90;;;;;;5015626;28;20233;-64
2023/08/16 04:04:53;;;;;;;23.43;15.57;;;17.10;99.90;;;;;;5005749;28;20218;-64
2023/08/16 04:07:23;;;;;;;20.53;14.73;;;17.10;99.90;;;;;;5013881;28;20233;-64
2023/08/16 04:09:51;;;;;;;22.43;15.63;;;17.10;99.90;;;;;;4987181;28;20226;-64
2023/08/16 04:12:19;;;;;;;22.23;15.73;;;17.10;99.90;;;;;;4978666;28;20279;-64
2023/08/16 04:14:48;;;;;;;24.93;16.37;;;17.10;99.90;;;;;;4995925;28;20250;-64
2023/08/16 04:17:16;;;;;;;24.33;16.00;;;17.20;99.90;;;;;;4995361;28;20309;-64
2023/08/16 04:19:48;;;;;;;22.73;16.50;;;17.20;99.90;;;;;;4995495;28;20732;-64
2023/08/16 04:22:19;;;;;;;21.50;16.10;;;17.20;99.90;;;;;;4995446;28;20233;-64
2023/08/16 04:24:47;;;;;;;25.00;16.90;;;17.20;99.90;;;;;;4995511;28;20238;-64
2023/08/16 04:27:15;;;;;;;23.73;16.50;;;17.30;99.90;;;;;;5004000;28;20670;-64
2023/08/16 04:29:44;;;;;;;23.33;15.97;;;17.30;99.90;;;;;;5015474;28;20312;-64
2023/08/16 04:32:12;;;;;;;23.63;15.93;;;17.30;99.90;;;;;;4996164;28;20219;-64
2023/08/16 04:34:40;;;;;;;26.10;17.90;;;17.20;99.90;;;;;;4991915;28;20578;-64
2023/08/16 04:37:10;;;;;;;24.40;17.33;;;17.30;99.90;;;;;;4994817;28;20305;-64
2023/08/16 04:39:38;;;;;;;27.57;18.17;;;17.20;99.90;;;;;;4986969;28;20226;-64
2023/08/16 04:42:07;;;;;;;27.23;17.77;;;17.20;99.90;;;;;;4995188;28;20191;-63
2023/08/16 04:44:35;;;;;;;26.70;18.53;;;17.20;99.90;;;;;;4995358;28;20198;-64
2023/08/16 04:47:04;;;;;;;25.13;17.67;;;17.20;99.90;;;;;;4994892;28;20261;-64
2023/08/16 04:49:32;;;;;;;24.77;17.70;;;17.20;99.90;;;;;;4994431;28;20223;-64
2023/08/16 04:52:00;;;;;;;25.00;18.53;;;17.20;99.90;;;;;;4994783;28;20231;-64
2023/08/16 04:54:30;;;;;;;25.67;18.40;;;17.20;99.90;;;;;;4993161;28;20636;-64
2023/08/16 04:56:58;;;;;;;26.63;18.57;;;17.20;99.90;;;;;;4979442;28;20203;-63
2023/08/16 04:59:27;;;;;;;28.73;18.30;;;17.20;99.90;;;;;;4990143;28;20258;-63
2023/08/16 05:01:55;;;;;;;28.83;19.90;;;17.20;99.90;;;;;;4994569;28;20227;-63
2023/08/16 05:04:23;;;;;;;31.00;18.97;;;17.20;99.90;;;;;;4994219;28;20489;-63
2023/08/16 05:06:52;;;;;;;29.03;19.90;;;17.20;99.90;;;;;;4994367;28;20237;-63
2023/08/16 05:09:20;;;;;;;32.40;20.97;;;17.20;99.90;;;;;;4982678;28;20249;-63
2023/08/16 05:11:50;;;;;;;28.40;18.87;;;17.20;99.90;;;;;;4996739;28;20217;-63
2023/08/16 05:14:19;;;;;;;29.30;18.27;;;17.30;99.90;;;;;;5013166;28;20228;-63
2023/08/16 05:16:47;;;;;;;29.97;18.83;;;17.30;99.90;;;;;;5012647;28;20230;-63
2023/08/16 05:19:16;;;;;;;30.00;18.63;;;17.40;99.90;;;;;;5013290;28;20230;-63
2023/08/16 05:21:44;;;;;;;27.97;17.37;;;17.40;99.90;;;;;;5013854;28;20652;-63
2023/08/16 05:24:14;;;;;;;25.83;18.67;;;17.40;99.90;;;;;;5013144;28;20206;-63
2023/08/16 05:26:42;;;;;;;30.20;19.20;;;17.40;99.90;;;;;;5013782;28;20183;-63
2023/08/16 05:29:12;;;;;;;27.77;18.17;;;17.50;99.90;;;;;;5003446;28;20223;-63
2023/08/16 05:31:41;;;;;;;30.07;17.87;;;17.50;99.90;;;;;;5011168;28;20317;-63
2023/08/16 05:34:10;;;;;;;28.47;17.87;;;17.50;99.90;;;;;;5012804;28;20240;-63
2023/08/16 05:36:47;;;;;;;27.30;18.33;;;17.60;99.90;;;;;;5013666;28;20304;-62
2023/08/16 05:39:15;;;;;;;27.73;17.67;;;17.60;99.90;;;;;;5003541;28;20574;-62
2023/08/16 05:41:44;;;;;;;29.83;18.07;;;17.70;99.90;;;;;;5014150;28;20205;-63
2023/08/16 05:44:14;;;;;;;25.30;17.53;;;17.70;99.90;;;;;;5011472;28;20221;-63
2023/08/16 05:46:42;;;;;;;33.13;18.30;;;17.70;99.90;;;;;;5008310;28;20245;-63
2023/08/16 05:49:11;;;;;;;25.83;18.20;;;17.80;99.90;;;;;;5006987;28;20604;-63
2023/08/16 05:51:39;;;;;;;28.80;18.47;;;17.80;99.90;;;;;;5019724;28;20237;-63
2023/08/16 05:54:07;;;;;;;30.93;18.10;;;17.80;99.90;;;;;;4993398;28;20202;-63
2023/08/16 05:56:37;;;;;;;27.97;17.83;;;17.90;99.90;;;;;;5012926;28;20289;-63
2023/08/16 05:59:06;;;;;;;29.13;18.37;;;18.00;99.90;;;;;;4998036;28;20222;-63
2023/08/16 06:01:35;;;;;;;24.17;16.50;;;18.00;99.90;;;;;;5013074;28;20217;-63
2023/08/16 06:04:04;;;;;;;27.47;18.00;;;18.10;99.90;;;;;;5012859;28;20234;-63
2023/08/16 06:06:33;;;;;;;27.37;18.63;;;18.20;99.90;;;;;;5012030;28;20312;-63
2023/08/16 06:09:01;;;;;;;23.93;17.60;;;18.30;99.90;;;;;;5013461;28;20321;-63
2023/08/16 06:11:29;;;;;;;27.30;18.00;;;18.20;99.90;;;;;;5004946;28;20250;-63
2023/08/16 06:13:58;;;;;;;24.03;16.87;;;18.20;99.90;;;;;;5010525;28;20229;-63
2023/08/16 06:16:27;;;;;;;28.17;18.63;;;18.20;99.90;;;;;;4994928;28;20234;-63
2023/08/16 06:18:57;;;;;;;27.07;17.70;;;18.20;99.90;;;;;;5011943;28;20238;-62
2023/08/16 06:21:25;;;;;;;26.13;16.60;;;18.20;99.90;;;;;;5012468;28;20230;-62
2023/08/16 06:23:56;;;;;;;23.83;14.97;;;18.30;99.90;;;;;;5012655;28;20202;-64
2023/08/16 06:27:04;;;;;;;23.37;16.00;;;18.40;99.90;;;;;;5010557;28;20222;-64
2023/08/16 06:29:53;;;;;;;25.03;16.60;;;18.50;99.90;;;;;;5010163;28;20320;-64
2023/08/16 06:32:22;;;;;;;23.60;15.20;;;18.60;99.90;;;;;;5011616;28;20228;-63
2023/08/16 06:34:51;;;;;;;22.90;14.60;;;18.70;99.90;;;;;;5014114;28;20225;-63
2023/08/16 06:37:20;;;;;;;22.17;14.90;;;18.80;99.90;;;;;;5017105;28;20243;-64
2023/08/16 06:39:48;;;;;;;22.37;14.13;;;18.90;99.90;;;;;;5012688;28;20229;-63
2023/08/16 06:42:17;;;;;;;18.83;13.87;;;18.90;99.90;;;;;;5013182;28;20208;-64
2023/08/16 06:44:45;;;;;;;17.97;12.87;;;19.00;99.90;;;;;;5014068;28;20201;-64
2023/08/16 06:47:14;;;;;;;20.37;15.10;;;19.10;99.90;;;;;;5012094;28;20310;-64
2023/08/16 06:49:42;;;;;;;19.93;13.07;;;19.30;99.90;;;;;;4998711;28;20237;-64
2023/08/16 06:52:12;;;;;;;20.70;13.53;;;19.50;99.90;;;;;;5012404;28;20237;-63
2023/08/16 06:54:42;;;;;;;16.73;12.47;;;19.70;99.90;;;;;;5012302;28;20240;-63
2023/08/16 06:57:11;;;;;;;16.60;12.60;;;19.90;99.90;;;;;;5012504;28;20186;-63
2023/08/16 06:59:41;;;;;;;17.57;12.40;;;20.10;99.90;;;;;;5012685;28;20202;-64
2023/08/16 07:02:11;;;;;;;20.17;12.97;;;20.30;99.90;;;;;;5004300;28;20300;-64
2023/08/16 07:04:39;;;;;;;18.87;12.07;;;20.40;99.90;;;;;;5011735;28;20636;-64
2023/08/16 07:07:09;;;;;;;19.23;12.33;;;20.40;99.90;;;;;;4998015;28;20229;-64
2023/08/16 07:09:38;;;;;;;15.93;11.23;;;20.40;99.90;;;;;;5014461;28;20321;-64
2023/08/16 07:12:08;;;;;;;16.63;11.73;;;20.40;99.90;;;;;;5010955;28;20210;-64
2023/08/16 07:14:36;;;;;;;14.60;9.47;;;20.50;99.90;;;;;;5012310;28;20285;-64
2023/08/16 07:17:05;;;;;;;14.90;9.63;;;20.60;99.90;;;;;;5011735;28;20234;-64
2023/08/16 07:19:33;;;;;;;13.40;9.27;;;20.80;99.90;;;;;;5011931;28;20233;-64
2023/08/16 07:22:02;;;;;;;15.57;9.90;;;21.10;99.90;;;;;;5011806;28;20305;-63
2023/08/16 07:24:30;;;;;;;12.93;9.20;;;21.20;99.90;;;;;;5018959;28;20237;-63
2023/08/16 07:26:59;;;;;;;12.33;8.57;;;21.30;99.90;;;;;;5005008;28;20234;-64
2023/08/16 07:29:28;;;;;;;11.33;8.00;;;21.40;99.90;;;;;;4993864;28;20224;-64
2023/08/16 07:31:56;;;;;;;10.20;7.93;;;21.60;99.90;;;;;;4998524;28;20324;-63
2023/08/16 07:34:25;;;;;;;10.70;7.77;;;21.70;99.90;;;;;;5005194;28;20251;-63
2023/08/16 07:36:53;;;;;;;15.87;8.70;;;21.80;99.90;;;;;;5012169;28;20249;-63
2023/08/16 07:39:24;;;;;;;12.33;7.90;;;21.90;99.90;;;;;;5013219;28;21100;-63
2023/08/16 07:41:53;;;;;;;10.87;6.93;;;22.10;99.90;;;;;;5017079;28;20284;-64
2023/08/16 07:44:23;;;;;;;6.63;5.67;;;22.00;99.90;;;;;;5025498;28;20231;-64
2023/08/16 07:46:51;;;;;;;7.77;6.10;;;21.90;99.90;;;;;;5018064;28;20232;-63
2023/08/16 07:49:19;;;;;;;13.27;6.60;;;22.10;99.90;;;;;;4998719;28;20225;-64
2023/08/16 07:51:48;;;;;;;8.37;6.03;;;22.20;99.90;;;;;;5015472;28;20364;-63
2023/08/16 07:54:16;;;;;;;7.73;6.93;;;22.20;99.90;;;;;;5009216;28;20203;-63
2023/08/16 07:56:44;;;;;;;14.47;7.10;;;22.20;99.90;;;;;;5009830;28;20197;-63
2023/08/16 07:59:13;;;;;;;9.13;6.93;;;22.10;99.90;;;;;;4997609;28;20230;-63
2023/08/16 08:01:46;;;;;;;10.57;6.97;;;22.00;99.90;;;;;;5014898;28;20307;-64
2023/08/16 08:04:14;;;;;;;11.77;7.00;;;22.10;99.90;;;;;;5010278;28;20233;-64
2023/08/16 08:06:43;;;;;;;9.27;6.83;;;22.10;99.90;;;;;;5015485;28;20632;-64
2023/08/16 08:09:11;;;;;;;8.93;6.50;;;22.00;99.90;;;;;;5014359;28;20309;-63
2023/08/16 08:11:39;;;;;;;13.80;6.33;;;21.90;99.90;;;;;;5015533;28;20213;-64
2023/08/16 08:14:08;;;;;;;10.23;7.00;;;21.80;99.90;;;;;;5015132;28;20316;-64
2023/08/16 08:16:36;;;;;;;15.27;6.53;;;21.90;99.90;;;;;;5013605;28;20250;-64
2023/08/16 08:19:06;;;;;;;12.83;8.03;;;21.90;99.90;;;;;;5015043;28;20287;-63
2023/08/16 08:21:34;;;;;;;11.67;7.67;;;21.90;99.90;;;;;;5013969;28;20362;-64
2023/08/16 08:24:03;;;;;;;10.50;7.97;;;21.70;99.90;;;;;;5017287;28;20192;-64
2023/08/16 08:26:31;;;;;;;11.17;7.53;;;21.70;99.90;;;;;;5014746;28;20615;-64
2023/08/16 08:29:00;;;;;;;11.27;8.03;;;21.60;99.90;;;;;;5001241;28;20216;-64
2023/08/16 08:31:28;;;;;;;14.50;7.70;;;21.70;99.90;;;;;;5014820;28;20232;-64
2023/08/16 08:33:56;;;;;;;13.60;8.23;;;21.80;99.90;;;;;;5014838;28;20232;-64
2023/08/16 08:36:26;;;;;;;13.63;8.13;;;22.10;99.90;;;;;;5014882;28;20225;-64
2023/08/16 08:38:54;;;;;;;11.33;8.27;;;22.50;99.90;;;;;;5015130;28;20201;-64
2023/08/16 08:41:24;;;;;;;12.17;8.23;;;22.70;99.90;;;;;;5014584;28;20214;-62
2023/08/16 08:44:05;;;;;;;10.93;7.63;;;22.90;99.90;;;;;;5006041;28;20217;-64
2023/08/16 08:46:34;;;;;;;9.83;7.60;;;23.20;99.90;;;;;;5014341;28;20236;-63
2023/08/16 08:49:04;;;;;;;10.67;7.70;;;23.40;99.90;;;;;;5013920;28;20221;-63
2023/08/16 08:51:36;;;;;;;10.20;7.40;;;23.50;99.90;;;;;;5014107;28;20296;-63
2023/08/16 08:54:05;;;;;;;7.80;6.87;;;23.60;99.90;;;;;;5014066;28;20656;-62
2023/08/16 08:56:35;;;;;;;12.20;7.10;;;23.70;99.90;;;;;;5016434;28;20198;-63
2023/08/16 08:59:04;;;;;;;14.17;6.70;;;23.80;99.90;;;;;;4994441;28;20221;-63
2023/08/16 09:01:35;;;;;;;11.50;6.60;;;23.70;99.90;;;;;;5013664;28;20305;-63
2023/08/16 09:04:06;;;;;;;11.07;6.50;;;23.70;99.90;;;;;;5012821;28;20242;-63
2023/08/16 09:06:36;;;;;;;7.73;5.97;;;23.70;99.90;;;;;;5013604;28;20295;-63
2023/08/16 09:09:07;;;;;;;10.17;5.77;;;23.70;99.90;;;;;;5013964;28;20218;-63
2023/08/16 09:11:35;;;;;;;5.53;4.37;;;23.90;99.90;;;;;;4997442;28;20214;-63
2023/08/16 09:14:05;;;;;;;10.57;4.67;;;24.00;99.90;;;;;;5012848;28;21057;-63
2023/08/16 09:16:34;;;;;;;6.37;4.00;;;23.90;99.90;;;;;;5004791;28;20584;-64
2023/08/16 09:19:02;;;;;;;6.67;4.10;;;24.00;99.90;;;;;;5006976;28;20232;-63
2023/08/16 09:21:31;;;;;;;9.03;4.33;;;24.00;99.90;;;;;;5013704;28;20345;-63
2023/08/16 09:24:01;;;;;;;4.90;4.20;;;24.20;99.90;;;;;;5013669;28;20198;-63
2023/08/16 09:26:29;;;;;;;7.60;4.27;;;24.40;99.90;;;;;;5009866;28;20314;-63
2023/08/16 09:28:58;;;;;;;6.03;3.75;;;24.90;99.90;;;;;;5013463;28;20268;-63
2023/08/16 09:31:29;;;;;;;4.20;3.50;;;25.50;99.90;;;;;;5012641;28;20598;-62
2023/08/16 09:33:59;;;;;;;6.82;3.75;;;25.80;99.90;;;;;;5013637;28;20250;-63
2023/08/16 09:36:29;;;;;;;6.00;3.75;;;25.90;99.90;;;;;;5007102;28;20238;-63
2023/08/16 09:39:04;;;;;;;7.70;3.55;;;26.00;99.90;;;;;;5012740;28;20316;-64
2023/08/16 09:41:33;;;;;;;5.78;3.60;;;25.90;99.90;;;;;;4984423;28;20324;-68
2023/08/16 09:44:06;;;;;;;5.43;3.45;;;25.90;99.90;;;;;;5002542;28;20333;-68
2023/08/16 09:46:34;;;;;;;34.97;4.72;;;26.00;99.90;;;;;;5004518;28;20697;-68
2023/08/16 09:49:08;;;;;;;5.15;3.42;;;26.10;99.90;;;;;;4998692;28;20314;-68
2023/08/16 09:51:39;;;;;;;43.55;10.07;;;26.10;99.90;;;;;;5004298;28;20577;-68
2023/08/16 09:54:13;;;;;;;4.35;2.65;;;26.20;99.90;;;;;;5006827;28;20592;-67
2023/08/16 09:56:43;;;;;;;4.20;2.55;;;26.00;99.90;;;;;;4999638;28;20285;-68
2023/08/16 09:59:32;;;;;;;2.75;2.55;;;26.00;99.90;;;;;;5006747;28;20292;-64
2023/08/16 10:02:03;;;;;;;6.07;2.80;;;26.00;99.90;;;;;;5003525;28;20221;-67
2023/08/16 10:04:35;;;;;;;4.18;2.80;;;26.00;99.90;;;;;;5005197;28;20226;-67
2023/08/16 10:07:06;;;;;;;4.15;2.70;;;25.80;99.90;;;;;;5009653;28;20575;-66
2023/08/16 10:09:41;;;;;;;3.85;2.72;;;25.80;99.90;;;;;;5007746;28;20323;-66
2023/08/16 10:12:10;;;;;;;6.90;3.05;;;25.80;99.90;;;;;;5010768;28;20223;-66
2023/08/16 10:14:39;;;;;;;4.10;2.72;;;25.80;99.90;;;;;;4998202;28;20223;-66
2023/08/16 10:17:09;;;;;;;4.85;3.30;;;25.80;99.90;;;;;;5007538;28;20220;-66
2023/08/16 10:19:42;;;;;;;3.58;2.88;;;25.80;99.90;;;;;;5013779;28;20219;-66
2023/08/16 10:22:20;;;;;;;3.88;3.03;;;25.90;99.90;;;;;;5010414;28;20216;-66
2023/08/16 10:24:55;;;;;;;5.85;3.42;;;26.50;99.90;;;;;;5010525;28;20774;-66
2023/08/16 10:27:25;;;;;;;5.03;2.95;;;26.70;99.90;;;;;;5011472;28;20318;-65
2023/08/16 10:29:59;;;;;;;3.60;3.22;;;26.60;99.90;;;;;;5008958;28;20207;-66
2023/08/16 10:32:37;;;;;;;5.22;3.55;;;26.50;99.90;;;;;;5004587;28;20318;-65
2023/08/16 10:35:07;;;;;;;3.60;2.80;;;26.30;99.90;;;;;;5009226;28;20297;-65
2023/08/16 10:37:36;;;;;;;3.85;2.67;;;26.70;99.90;;;;;;5001007;28;20653;-66
2023/08/16 10:40:18;;;;;;;4.95;2.75;;;27.50;99.90;;;;;;4994572;28;20227;-65
2023/08/16 10:42:55;;;;;;;5.75;2.90;;;28.20;99.90;;;;;;5009367;28;20260;-65
2023/08/16 10:45:28;;;;;;;3.30;2.53;;;28.50;99.90;;;;;;5016334;28;20695;-65
2023/08/16 10:48:09;;;;;;;3.88;3.22;;;28.50;99.90;;;;;;5012067;28;20190;-66
2023/08/16 10:50:38;;;;;;;5.18;3.13;;;28.40;99.90;;;;;;5003838;28;20221;-66
2023/08/16 10:53:08;;;;;;;4.78;3.13;;;28.30;99.90;;;;;;5008820;28;20310;-66
2023/08/16 10:55:37;;;;;;;4.47;2.55;;;28.30;99.90;;;;;;5005021;28;20235;-65
2023/08/16 10:58:06;;;;;;;6.05;3.58;;;28.70;99.90;;;;;;5009143;28;20228;-65
2023/08/16 11:00:39;;;;;;;4.43;3.75;;;29.10;99.90;;;;;;5010809;28;20256;-65
2023/08/16 11:03:19;;;;;;;6.60;2.92;;;28.90;99.90;;;;;;5010115;28;20194;-66
2023/08/16 11:05:49;;;;;;;3.10;2.80;;;28.70;99.90;;;;;;5010037;28;20190;-65
2023/08/16 11:08:17;;;;;;;5.93;2.75;;;28.60;99.90;;;;;;5004169;28;20230;-65
2023/08/16 11:10:47;;;;;;;6.57;4.35;;;28.80;99.90;;;;;;5002747;28;20284;-66
2023/08/16 11:13:15;;;;;;;4.40;4.00;;;29.20;99.90;;;;;;5010422;28;20240;-65
2023/08/16 11:15:44;;;;;;;6.43;3.85;;;29.40;99.90;;;;;;5012336;28;20625;-66
2023/08/16 11:18:12;;;;;;;5.65;4.60;;;29.60;99.90;;;;;;4991893;28;20190;-65
2023/08/16 11:20:44;;;;;;;7.07;4.07;;;29.40;99.90;;;;;;4990722;28;20196;-66
2023/08/16 11:23:13;;;;;;;6.10;3.72;;;28.90;99.90;;;;;;5014260;28;20210;-65
2023/08/16 11:25:42;;;;;;;7.32;3.72;;;28.60;99.90;;;;;;4995496;28;20608;-66
2023/08/16 11:28:17;;;;;;;5.03;3.90;;;28.60;99.90;;;;;;4996734;28;20226;-66
2023/08/16 11:30:56;;;;;;;9.13;4.80;;;28.70;99.90;;;;;;5011911;28;20296;-65
2023/08/16 11:33:25;;;;;;;7.10;4.40;;;28.70;99.90;;;;;;5012835;28;20639;-66
2023/08/16 11:35:54;;;;;;;4.75;4.18;;;28.60;99.90;;;;;;5014016;28;20199;-66
2023/08/16 11:38:27;;;;;;;6.60;4.40;;;28.40;99.90;;;;;;5011203;28;20219;-66
2023/08/16 11:40:55;;;;;;;3.80;3.47;;;28.30;99.90;;;;;;5010655;28;20300;-66
2023/08/16 11:43:29;;;;;;;3.45;3.17;;;28.00;99.90;;;;;;5014848;28;20220;-66
2023/08/16 11:45:58;;;;;;;7.65;3.90;;;27.70;99.90;;;;;;5010622;28;20255;-66
2023/08/16 11:48:29;;;;;;;4.28;3.58;;;27.10;99.90;;;;;;5014510;28;20225;-66
2023/08/16 11:50:59;;;;;;;6.82;3.42;;;26.70;99.90;;;;;;4992275;28;20211;-66
2023/08/16 11:53:32;;;;;;;2.45;2.35;;;26.60;99.90;;;;;;5001928;28;20296;-68
2023/08/16 11:56:02;;;;;;;2.80;2.50;;;26.80;99.90;;;;;;5003460;28;20315;-65
2023/08/16 11:58:43;;;;;;;5.85;2.65;;;26.90;99.90;;;;;;5004179;28;20224;-66
2023/08/16 12:01:14;;;;;;;2.45;2.25;;;26.90;99.90;;;;;;5006338;28;20318;-65
2023/08/16 12:03:44;;;;;;;7.53;3.33;;;26.70;99.90;;;;;;5001330;28;20306;-65
2023/08/16 12:06:13;;;;;;;3.67;2.72;;;26.60;99.90;;;;;;5009189;28;20209;-65
2023/08/16 12:08:48;;;;;;;10.27;3.42;;;26.40;99.90;;;;;;5009658;28;20215;-65
2023/08/16 12:11:27;;;;;;;6.72;3.75;;;26.50;99.90;;;;;;5010712;28;20324;-65
2023/08/16 12:13:57;;;;;;;6.25;4.00;;;26.40;99.90;;;;;;5015371;28;20719;-64
2023/08/16 12:16:26;;;;;;;7.95;4.30;;;26.30;99.90;;;;;;4997732;28;20357;-65
2023/08/16 12:18:55;;;;;;;5.65;3.70;;;26.40;99.90;;;;;;5016119;28;20226;-64
2023/08/16 12:25:07;;;;;;;7.28;3.70;;;26.90;99.90;;;;;;4997514;28;20630;-64
2023/08/16 12:27:36;;;;;;;3.55;3.25;;;27.30;99.90;;;;;;5015037;28;20319;-64
2023/08/16 12:33:48;;;;;;;4.38;3.95;;;27.70;99.90;;;;;;5015156;28;20230;-64
2023/08/16 12:36:16;;;;;;;3.60;3.20;;;28.00;99.90;;;;;;5014823;28;20205;-64
2023/08/16 12:38:44;;;;;;;6.35;3.90;;;28.10;99.90;;;;;;5015958;28;20197;-64
2023/08/16 12:41:13;;;;;;;5.78;3.75;;;27.60;99.90;;;;;;5014933;28;20218;-65
2023/08/16 12:43:41;;;;;;;5.15;3.65;;;27.20;99.90;;;;;;5014879;28;20238;-64
2023/08/16 12:46:09;;;;;;;6.03;4.10;;;27.10;99.90;;;;;;5014814;28;20232;-64
2023/08/16 12:48:38;;;;;;;5.95;3.50;;;27.10;99.90;;;;;;4997310;28;20243;-64
2023/08/16 12:51:08;;;;;;;5.18;3.28;;;26.90;99.90;;;;;;5015028;28;20191;-64
2023/08/16 12:53:44;;;;;;;5.43;2.90;;;26.80;99.90;;;;;;5015690;28;20649;-64
2023/08/16 12:56:13;;;;;;;2.95;2.58;;;26.70;99.90;;;;;;4998194;28;20218;-64
2023/08/16 12:58:42;;;;;;;4.00;3.20;;;26.70;99.90;;;;;;4995353;28;20226;-65